createdAt,value
2019-03-21T00:02:30.376Z,23.63
2019-03-21T00:05:36.103Z,23.61
2019-03-21T00:08:40.183Z,23.59
2019-03-21T00:12:04.355Z,23.58
2019-03-21T00:15:35.128Z,23.58
2019-03-21T00:18:39.248Z,23.56
2019-03-21T00:21:43.340Z,23.54
2019-03-21T00:24:47.507Z,23.54
2019-03-21T00:27:52.657Z,23.54
2019-03-21T00:30:57.709Z,23.52
2019-03-21T00:34:01.863Z,23.52
2019-03-21T00:37:05.978Z,23.50
2019-03-21T00:40:13.128Z,23.50
2019-03-21T00:43:17.288Z,23.49
2019-03-21T00:46:21.440Z,23.49
2019-03-21T00:49:27.530Z,23.48
2019-03-21T00:52:31.642Z,23.47
2019-03-21T00:55:37.532Z,23.46
2019-03-21T00:58:42.541Z,23.46
2019-03-21T01:01:46.652Z,23.45
2019-03-21T01:04:50.826Z,23.46
2019-03-21T01:07:55.901Z,23.43
2019-03-21T01:11:00.012Z,23.44
2019-03-21T01:14:04.457Z,23.43
2019-03-21T01:17:08.475Z,23.42
2019-03-21T01:20:14.035Z,23.41
2019-03-21T01:23:19.179Z,23.40
2019-03-21T01:26:24.417Z,23.40
2019-03-21T01:29:28.472Z,23.39
2019-03-21T01:32:32.605Z,23.39
2019-03-21T01:35:37.087Z,23.37
2019-03-21T01:38:42.179Z,23.38
2019-03-21T01:41:46.160Z,23.37
2019-03-21T01:44:51.230Z,23.37
2019-03-21T01:47:55.589Z,23.36
2019-03-21T01:50:59.735Z,23.36
2019-03-21T01:54:04.047Z,23.36
2019-03-21T01:57:08.099Z,23.35
2019-03-21T02:00:20.242Z,23.34
2019-03-21T02:03:24.315Z,23.34
2019-03-21T02:06:28.435Z,23.33
2019-03-21T02:09:32.538Z,23.33
2019-03-21T02:12:36.645Z,23.33
2019-03-21T02:15:40.952Z,23.31
2019-03-21T02:18:45.105Z,23.30
2019-03-21T02:21:49.261Z,23.30
2019-03-21T02:24:54.354Z,23.30
2019-03-21T02:27:58.574Z,23.29
2019-03-21T02:31:02.835Z,23.28
2019-03-21T02:34:07.372Z,23.29
2019-03-21T02:37:11.553Z,23.28
2019-03-21T02:40:17.212Z,23.27
2019-03-21T02:43:21.380Z,23.26
2019-03-21T02:46:25.487Z,23.26
2019-03-21T02:49:30.621Z,23.25
2019-03-21T02:52:35.712Z,23.25
2019-03-21T02:55:39.806Z,23.25
2019-03-21T02:58:43.955Z,23.25
2019-03-21T03:01:48.106Z,23.23
2019-03-21T03:04:54.232Z,23.24
2019-03-21T03:07:58.417Z,23.24
2019-03-21T03:11:03.081Z,23.22
2019-03-21T03:14:07.202Z,23.22
2019-03-21T03:17:11.417Z,23.22
2019-03-21T03:20:16.036Z,23.21
2019-03-21T03:23:21.145Z,23.20
2019-03-21T03:26:25.249Z,23.20
2019-03-21T03:29:29.556Z,23.19
2019-03-21T03:32:33.682Z,23.19
2019-03-21T03:35:37.821Z,23.18
2019-03-21T03:38:41.925Z,23.19
2019-03-21T03:41:46.110Z,23.18
2019-03-21T03:44:50.419Z,23.17
2019-03-21T03:47:54.556Z,23.18
2019-03-21T03:50:58.681Z,23.16
2019-03-21T03:54:02.713Z,23.16
2019-03-21T03:57:06.884Z,23.14
2019-03-21T04:00:13.793Z,23.15
2019-03-21T04:03:17.956Z,23.13
2019-03-21T04:06:22.119Z,23.13
2019-03-21T04:09:27.176Z,23.13
2019-03-21T04:12:31.399Z,23.13
2019-03-21T04:15:35.539Z,23.13
2019-03-21T04:18:39.903Z,23.11
2019-03-21T04:21:44.206Z,23.11
2019-03-21T04:24:48.377Z,23.12
2019-03-21T04:27:52.543Z,23.11
2019-03-21T04:30:57.739Z,23.09
2019-03-21T04:34:04.138Z,23.09
2019-03-21T04:37:08.359Z,23.09
2019-03-21T04:40:13.067Z,23.09
2019-03-21T04:43:17.043Z,23.07
2019-03-21T04:46:21.125Z,23.08
2019-03-21T04:49:25.298Z,23.08
2019-03-21T04:52:30.390Z,23.06
2019-03-21T04:55:36.480Z,23.06
2019-03-21T04:58:40.594Z,23.05
2019-03-21T05:01:44.742Z,23.05
2019-03-21T05:04:48.920Z,23.05
2019-03-21T05:07:53.097Z,23.05
2019-03-21T05:10:57.342Z,23.05
2019-03-21T05:14:02.470Z,23.03
2019-03-21T05:17:06.684Z,23.04
2019-03-21T05:20:14.490Z,23.03
2019-03-21T05:23:18.623Z,23.02
2019-03-21T05:26:23.854Z,23.02
2019-03-21T05:29:27.909Z,23.02
2019-03-21T05:32:31.990Z,23.01
2019-03-21T05:35:36.195Z,23.01
2019-03-21T05:38:40.235Z,23.01
2019-03-21T05:41:44.335Z,23.00
2019-03-21T05:44:48.526Z,23.00
2019-03-21T05:47:52.586Z,23.00
2019-03-21T05:50:57.722Z,22.99
2019-03-21T05:54:01.843Z,22.99
2019-03-21T05:57:07.112Z,22.99
2019-03-21T06:00:15.435Z,22.99
2019-03-21T06:03:22.505Z,22.99
2019-03-21T06:06:40.031Z,22.98
2019-03-21T06:09:44.188Z,22.97
2019-03-21T06:12:49.268Z,22.98
2019-03-21T06:15:53.397Z,22.97
2019-03-21T06:19:04.376Z,22.96
2019-03-21T06:22:42.603Z,22.97
2019-03-21T06:26:21.129Z,22.96
2019-03-21T06:29:25.198Z,22.96
2019-03-21T06:32:29.300Z,22.95
2019-03-21T06:35:34.490Z,22.94
2019-03-21T06:38:38.554Z,22.95
2019-03-21T06:41:45.798Z,22.95
2019-03-21T06:44:49.850Z,22.94
2019-03-21T06:47:54.036Z,22.96
2019-03-21T06:50:58.131Z,22.95
2019-03-21T06:54:02.238Z,22.95
2019-03-21T06:57:06.419Z,22.94
2019-03-21T07:00:11.131Z,22.94
2019-03-21T07:03:16.587Z,22.94
2019-03-21T07:06:20.726Z,22.95
2019-03-21T07:09:24.863Z,22.94
2019-03-21T07:12:28.856Z,22.94
2019-03-21T07:15:38.695Z,22.94
2019-03-21T07:18:43.775Z,22.94
2019-03-21T07:21:47.798Z,23.01
2019-03-21T07:24:51.821Z,23.03
2019-03-21T07:27:55.950Z,23.09
2019-03-21T07:31:00.010Z,23.12
2019-03-21T07:34:04.025Z,23.15
2019-03-21T07:37:08.016Z,23.17
2019-03-21T07:40:12.589Z,23.18
2019-03-21T07:43:16.554Z,23.19
2019-03-21T07:46:20.571Z,23.20
2019-03-21T07:49:24.558Z,23.21
2019-03-21T07:52:28.624Z,23.23
2019-03-21T07:55:32.623Z,23.25
2019-03-21T07:58:36.579Z,23.26
2019-03-21T08:01:42.584Z,23.26
2019-03-21T08:04:46.620Z,23.29
2019-03-21T08:07:50.707Z,23.31
2019-03-21T08:10:54.825Z,23.31
2019-03-21T08:13:58.830Z,23.34
2019-03-21T08:17:03.022Z,23.35
2019-03-21T08:20:08.720Z,23.34
2019-03-21T08:23:12.833Z,23.36
2019-03-21T08:26:17.011Z,23.36
2019-03-21T08:29:23.105Z,23.38
2019-03-21T08:32:27.315Z,23.41
2019-03-21T08:35:33.389Z,23.42
2019-03-21T08:38:37.509Z,23.42
2019-03-21T08:41:41.624Z,23.44
2019-03-21T08:44:45.728Z,23.45
2019-03-21T08:47:49.844Z,23.47
2019-03-21T08:50:53.959Z,23.49
2019-03-21T08:53:58.140Z,23.50
2019-03-21T08:57:02.320Z,23.50
2019-03-21T09:00:06.336Z,23.52
2019-03-21T09:03:10.406Z,23.53
2019-03-21T09:06:14.627Z,23.54
2019-03-21T09:09:18.650Z,23.54
2019-03-21T09:15:25.730Z,23.59
2019-03-21T09:18:29.776Z,23.63
2019-03-21T09:21:33.957Z,23.63
2019-03-21T09:24:39.025Z,23.63
2019-03-21T09:27:43.138Z,23.67
2019-03-21T09:30:50.468Z,23.38
2019-03-21T09:33:54.256Z,23.59
2019-03-21T09:37:00.669Z,23.64
2019-03-21T09:40:06.625Z,23.68
2019-03-21T09:43:10.688Z,23.71
2019-03-21T09:46:14.769Z,23.73
2019-03-21T09:49:20.007Z,23.74
2019-03-21T09:52:25.139Z,23.77
2019-03-21T09:55:29.286Z,23.77
2019-03-21T09:58:33.290Z,23.79
2019-03-21T10:01:37.486Z,23.80
2019-03-21T10:04:41.609Z,23.83
2019-03-21T10:07:45.677Z,23.84
2019-03-21T10:10:49.730Z,23.85
2019-03-21T10:13:53.706Z,23.87
2019-03-21T10:16:57.818Z,23.88
2019-03-21T10:20:01.993Z,23.90
2019-03-21T10:23:05.966Z,23.92
2019-03-21T10:26:10.139Z,23.94
2019-03-21T10:29:15.365Z,23.95
2019-03-21T10:32:19.385Z,23.97
2019-03-21T10:35:23.479Z,23.97
2019-03-21T10:38:27.517Z,24.01
2019-03-21T10:41:31.490Z,24.02
2019-03-21T10:44:35.722Z,24.04
2019-03-21T10:47:39.946Z,24.06
2019-03-21T10:50:44.086Z,24.07
2019-03-21T10:53:48.236Z,24.08
2019-03-21T10:56:52.349Z,24.11
2019-03-21T10:59:56.516Z,24.14
2019-03-21T11:03:00.630Z,24.14
2019-03-21T11:06:04.678Z,24.17
2019-03-21T11:09:09.444Z,24.19
2019-03-21T11:12:13.758Z,24.22
2019-03-21T11:15:17.895Z,24.23
2019-03-21T11:18:21.939Z,24.25
2019-03-21T11:21:27.085Z,24.28
2019-03-21T11:24:32.254Z,24.31
2019-03-21T11:27:38.658Z,24.31
2019-03-21T11:30:43.987Z,24.32
2019-03-21T11:33:48.069Z,24.33
2019-03-21T11:36:52.251Z,24.34
2019-03-21T11:39:56.327Z,24.36
2019-03-21T11:43:00.973Z,24.40
2019-03-21T11:46:05.170Z,24.41
2019-03-21T11:49:10.258Z,24.44
2019-03-21T11:52:18.361Z,24.45
2019-03-21T11:55:20.220Z,24.44
2019-03-21T11:58:24.424Z,24.43
2019-03-21T12:01:28.571Z,24.44
2019-03-21T12:04:32.692Z,24.45
2019-03-21T12:07:36.797Z,24.48
2019-03-21T12:10:43.987Z,24.50
2019-03-21T12:13:50.327Z,24.54
2019-03-21T12:16:54.476Z,24.56
2019-03-21T12:19:58.586Z,24.59
2019-03-21T12:23:02.816Z,24.60
2019-03-21T12:26:06.891Z,24.60
2019-03-21T12:29:10.922Z,24.62
2019-03-21T12:32:15.049Z,24.65
2019-03-21T12:35:19.269Z,24.65
2019-03-21T12:38:23.264Z,24.67
2019-03-21T12:41:27.404Z,24.70
2019-03-21T12:44:38.932Z,24.72
2019-03-21T12:47:42.999Z,24.73
2019-03-21T12:50:48.243Z,24.75
2019-03-21T12:53:52.255Z,24.74
2019-03-21T12:56:56.399Z,24.76
2019-03-21T13:00:00.502Z,24.78
2019-03-21T13:03:04.647Z,24.81
2019-03-21T13:06:08.795Z,24.82
2019-03-21T13:09:12.825Z,24.83
2019-03-21T13:12:17.038Z,24.87
2019-03-21T13:15:29.817Z,24.89
2019-03-21T13:18:27.641Z,24.93
2019-03-21T13:21:31.929Z,24.95
2019-03-21T13:24:36.162Z,24.95
2019-03-21T13:27:40.672Z,24.97
2019-03-21T13:30:44.996Z,25.00
2019-03-21T13:33:49.020Z,25.01
2019-03-21T13:36:53.639Z,25.03
2019-03-21T13:39:57.854Z,25.05
2019-03-21T13:43:02.407Z,25.08
2019-03-21T13:46:06.779Z,25.10
2019-03-21T13:49:10.927Z,25.11
2019-03-21T13:52:15.280Z,25.12
2019-03-21T13:55:20.738Z,25.14
2019-03-21T13:58:25.010Z,25.16
2019-03-21T14:01:29.467Z,25.19
2019-03-21T14:04:33.564Z,25.20
2019-03-21T14:07:37.783Z,25.22
2019-03-21T14:10:42.940Z,25.24
2019-03-21T14:13:48.089Z,25.25
2019-03-21T14:16:52.281Z,25.24
2019-03-21T14:19:57.400Z,25.23
2019-03-21T14:23:02.544Z,25.27
2019-03-21T14:26:06.567Z,25.26
2019-03-21T14:29:12.775Z,25.27
2019-03-21T14:32:17.478Z,25.29
2019-03-21T14:35:21.588Z,25.32
2019-03-21T14:38:26.610Z,25.34
2019-03-21T14:41:31.937Z,25.36
2019-03-21T14:44:36.005Z,25.38
2019-03-21T14:47:40.277Z,25.39
2019-03-21T14:50:44.680Z,25.42
2019-03-21T14:53:48.728Z,25.43
2019-03-21T14:56:52.875Z,25.45
2019-03-21T14:59:56.966Z,25.46
2019-03-21T15:03:01.083Z,25.46
2019-03-21T15:06:05.228Z,25.48
2019-03-21T15:09:09.315Z,25.50
2019-03-21T15:12:15.504Z,25.53
2019-03-21T15:15:19.653Z,25.54
2019-03-21T15:18:23.855Z,25.57
2019-03-21T15:21:28.197Z,25.59
2019-03-21T15:24:32.421Z,25.62
2019-03-21T15:27:36.686Z,25.65
2019-03-21T15:30:40.772Z,25.69
2019-03-21T15:33:44.878Z,25.74
2019-03-21T15:36:48.994Z,25.86
2019-03-21T15:39:53.139Z,25.82
2019-03-21T15:42:57.364Z,25.84
2019-03-21T15:46:01.351Z,25.83
2019-03-21T15:49:05.511Z,25.84
2019-03-21T15:52:10.646Z,25.85
2019-03-21T15:55:14.728Z,25.87
2019-03-21T15:58:19.072Z,25.87
2019-03-21T16:01:23.158Z,25.88
2019-03-21T16:04:27.331Z,25.89
2019-03-21T16:07:31.428Z,25.89
2019-03-21T16:10:36.366Z,25.90
2019-03-21T16:13:40.472Z,25.88
2019-03-21T16:16:44.704Z,25.87
2019-03-21T16:19:48.872Z,25.87
2019-03-21T16:22:53.057Z,25.87
2019-03-21T16:25:58.130Z,25.84
2019-03-21T16:29:02.279Z,25.83
2019-03-21T16:32:06.355Z,25.84
2019-03-21T16:35:11.526Z,25.82
2019-03-21T16:38:15.643Z,25.81
2019-03-21T16:41:19.750Z,25.79
2019-03-21T16:44:23.887Z,25.78
2019-03-21T16:47:27.965Z,25.76
2019-03-21T16:50:31.928Z,25.71
2019-03-21T16:53:36.033Z,25.69
2019-03-21T16:56:40.107Z,25.67
2019-03-21T16:59:44.223Z,25.66
2019-03-21T17:02:48.343Z,25.62
2019-03-21T17:05:52.466Z,25.60
2019-03-21T17:08:57.688Z,25.59
2019-03-21T17:12:02.252Z,25.59
2019-03-21T17:15:06.511Z,25.57
2019-03-21T17:18:10.616Z,25.58
2019-03-21T17:21:14.604Z,25.57
2019-03-21T17:24:28.643Z,25.56
2019-03-21T17:27:24.252Z,25.55
2019-03-21T17:30:28.249Z,25.55
2019-03-21T17:33:32.362Z,25.54
2019-03-21T17:36:36.584Z,25.52
2019-03-21T17:39:40.591Z,25.51
2019-03-21T17:42:44.610Z,25.48
2019-03-21T17:45:48.611Z,25.49
2019-03-21T17:48:53.736Z,25.47
2019-03-21T17:51:57.916Z,25.46
2019-03-21T17:55:03.036Z,25.44
2019-03-21T17:58:07.012Z,25.46
2019-03-21T18:01:11.063Z,25.44
2019-03-21T18:04:15.063Z,25.42
2019-03-21T18:07:19.100Z,25.43
2019-03-21T18:10:30.422Z,25.42
2019-03-21T18:13:34.547Z,25.43
2019-03-21T18:16:38.602Z,25.41
2019-03-21T18:19:42.592Z,25.38
2019-03-21T18:22:46.612Z,25.37
2019-03-21T18:25:50.758Z,25.40
2019-03-21T18:28:54.861Z,25.39
2019-03-21T18:31:59.026Z,25.38
2019-03-21T18:35:03.015Z,25.37
2019-03-21T18:38:07.274Z,25.38
2019-03-21T18:41:11.304Z,25.37
2019-03-21T18:44:15.418Z,25.36
2019-03-21T18:47:19.435Z,25.36
2019-03-21T18:50:23.505Z,25.36
2019-03-21T18:53:28.604Z,25.34
2019-03-21T18:56:32.596Z,25.35
2019-03-21T18:59:36.604Z,25.34
2019-03-21T19:02:40.701Z,25.34
2019-03-21T19:05:44.804Z,25.35
2019-03-21T19:08:48.857Z,25.34
2019-03-21T19:11:52.886Z,25.34
2019-03-21T19:14:56.971Z,25.33
2019-03-21T19:18:01.232Z,25.34
2019-03-21T19:21:05.306Z,25.33
2019-03-21T19:24:11.454Z,25.32
2019-03-21T19:27:14.973Z,25.32
2019-03-21T19:30:18.962Z,25.31
2019-03-21T19:33:22.949Z,25.32
2019-03-21T19:36:26.940Z,25.31
2019-03-21T19:39:30.937Z,25.30
2019-03-21T19:42:34.953Z,25.30
2019-03-21T19:45:38.938Z,25.30
2019-03-21T19:48:50.173Z,25.27
2019-03-21T19:51:48.638Z,25.29
2019-03-21T19:54:52.653Z,25.28
2019-03-21T19:57:56.902Z,25.29
2019-03-21T20:01:03.008Z,25.29
2019-03-21T20:04:06.981Z,25.29
2019-03-21T20:07:11.012Z,25.28
2019-03-21T20:10:15.327Z,25.28
2019-03-21T20:13:19.364Z,25.28
2019-03-21T20:16:23.338Z,25.28
2019-03-21T20:19:27.389Z,25.27
2019-03-21T20:22:31.415Z,25.27
2019-03-21T20:25:42.827Z,25.27
2019-03-21T20:28:41.171Z,25.27
2019-03-21T20:31:45.186Z,25.27
2019-03-21T20:34:49.198Z,25.25
2019-03-21T20:37:53.291Z,25.26
2019-03-21T20:40:57.466Z,25.25
2019-03-21T20:44:01.664Z,25.24
2019-03-21T20:47:06.905Z,25.27
2019-03-21T20:50:12.953Z,25.26
2019-03-21T20:53:16.953Z,25.26
2019-03-21T20:56:26.908Z,25.20
2019-03-21T20:59:32.072Z,25.18
2019-03-21T21:02:36.201Z,25.16
2019-03-21T21:05:40.205Z,25.13
2019-03-21T21:08:48.294Z,25.11
2019-03-21T21:11:52.503Z,25.10
2019-03-21T21:14:56.572Z,25.09
2019-03-21T21:18:00.740Z,25.08
2019-03-21T21:21:04.771Z,25.07
2019-03-21T21:24:09.893Z,25.05
2019-03-21T21:27:16.195Z,25.03
2019-03-21T21:30:20.409Z,25.02
2019-03-21T21:33:25.515Z,25.01
2019-03-21T21:36:29.722Z,25.00
2019-03-21T21:39:33.937Z,24.98
2019-03-21T21:42:39.168Z,24.96
2019-03-21T21:45:43.232Z,24.94
2019-03-21T21:48:47.319Z,24.93
2019-03-21T21:51:51.448Z,24.93
2019-03-21T21:54:55.481Z,24.91
2019-03-21T21:57:59.463Z,24.89
2019-03-21T22:01:03.495Z,24.88
2019-03-21T22:04:07.514Z,24.86
2019-03-21T22:07:11.658Z,24.84
2019-03-21T22:10:15.748Z,24.82
2019-03-21T22:13:19.837Z,24.81
2019-03-21T22:16:23.861Z,24.80
2019-03-21T22:19:28.950Z,24.77
2019-03-21T22:22:33.015Z,24.77
2019-03-21T22:25:37.230Z,24.76
2019-03-21T22:28:42.256Z,24.75
2019-03-21T22:31:46.262Z,24.74
2019-03-21T22:34:51.364Z,24.72
2019-03-21T22:37:55.488Z,24.70
2019-03-21T22:40:59.577Z,24.70
2019-03-21T22:44:03.664Z,24.69
2019-03-21T22:47:07.676Z,24.66
2019-03-21T22:50:14.731Z,24.67
2019-03-21T22:53:18.543Z,24.65
2019-03-21T22:56:24.614Z,24.63
2019-03-21T22:59:28.620Z,24.62
2019-03-21T23:02:32.986Z,24.60
2019-03-21T23:05:37.274Z,24.61
2019-03-21T23:08:42.387Z,24.60
2019-03-21T23:11:46.430Z,24.59
2019-03-21T23:14:50.431Z,24.57
2019-03-21T23:17:54.519Z,24.57
2019-03-21T23:20:59.634Z,24.56
2019-03-21T23:24:04.806Z,24.53
2019-03-21T23:27:09.115Z,24.52
2019-03-21T23:30:13.443Z,24.51
2019-03-21T23:33:20.460Z,24.51
2019-03-21T23:36:24.517Z,24.50
2019-03-21T23:39:28.576Z,24.48
2019-03-21T23:42:32.589Z,24.48
2019-03-21T23:45:36.607Z,24.47
2019-03-21T23:48:40.739Z,24.46
2019-03-21T23:51:44.733Z,24.45
2019-03-21T23:54:48.935Z,24.44
2019-03-21T23:57:52.981Z,24.44
